Time;durP1;ratioP1;P1;durP2;ratioP2;P2;SDS_P1;SDS_P2;PMS_P1;PMS_P2;Temp;Humidity;BMP_temperature;BMP_pressure;BME280_temperature;BME280_humidity;BME280_pressure;Samples;Min_cycle;Max_cycle;Signal;HPM_P1;HPM_P2
2023/05/01 00:00:55;;;;;;;8.80;4.63;;;15.30;65.60;;;;;;4968715;28;20058;-79
2023/05/01 00:03:21;;;;;;;9.40;4.15;;;15.30;65.60;;;;;;4954124;28;20434;-79
2023/05/01 00:05:47;;;;;;;7.95;4.25;;;15.30;65.70;;;;;;4958380;28;20089;-78
2023/05/01 00:08:13;;;;;;;8.57;4.53;;;15.20;65.50;;;;;;4943299;28;20075;-79
2023/05/01 00:10:39;;;;;;;6.10;3.83;;;15.20;65.50;;;;;;4957305;28;20038;-78
2023/05/01 00:13:05;;;;;;;7.60;3.97;;;15.20;65.60;;;;;;4949902;28;20045;-77
2023/05/01 00:15:32;;;;;;;7.97;3.65;;;15.20;65.60;;;;;;4947501;28;20113;-77
2023/05/01 00:17:58;;;;;;;9.75;4.65;;;15.10;65.50;;;;;;4948117;28;20479;-77
2023/05/01 00:20:28;;;;;;;5.82;4.18;;;15.10;65.60;;;;;;4951350;28;20031;-77
2023/05/01 00:22:54;;;;;;;9.70;4.13;;;15.10;65.60;;;;;;4958987;28;20042;-77
2023/05/01 00:25:20;;;;;;;9.00;4.43;;;15.10;65.70;;;;;;4960363;28;20234;-79
2023/05/01 00:27:47;;;;;;;6.97;3.90;;;15.10;65.70;;;;;;4947042;28;20114;-78
2023/05/01 00:30:13;;;;;;;8.88;5.35;;;15.10;65.70;;;;;;4940348;28;20033;-78
2023/05/01 00:32:39;;;;;;;8.27;4.90;;;15.10;65.80;;;;;;4945968;28;20046;-78
2023/05/01 00:35:05;;;;;;;9.00;3.97;;;15.00;65.70;;;;;;4957334;28;20391;-78
2023/05/01 00:37:31;;;;;;;7.40;4.03;;;15.10;65.90;;;;;;4942431;28;20042;-78
2023/05/01 00:39:57;;;;;;;9.40;5.18;;;15.00;66.30;;;;;;4943280;28;20348;-78
2023/05/01 00:42:23;;;;;;;10.73;5.30;;;15.00;65.80;;;;;;4932846;28;20387;-78
2023/05/01 00:44:49;;;;;;;11.80;4.85;;;15.00;65.80;;;;;;4941571;28;20525;-78
2023/05/01 00:47:15;;;;;;;9.18;4.70;;;15.00;65.90;;;;;;4943380;28;20044;-78
2023/05/01 00:49:42;;;;;;;8.38;4.25;;;14.90;65.70;;;;;;4947265;28;20511;-78
2023/05/01 00:52:08;;;;;;;9.02;4.70;;;14.90;65.80;;;;;;4961490;28;20035;-78
2023/05/01 00:54:35;;;;;;;10.10;5.00;;;14.90;65.80;;;;;;4972875;28;20058;-78
2023/05/01 00:57:02;;;;;;;10.05;4.45;;;14.90;65.80;;;;;;4962726;28;20965;-78
2023/05/01 00:59:28;;;;;;;8.95;4.63;;;14.90;65.80;;;;;;4966070;29;20011;-78
2023/05/01 01:01:54;;;;;;;11.30;5.15;;;14.90;65.90;;;;;;4957666;28;20130;-78
2023/05/01 01:04:20;;;;;;;7.65;3.85;;;14.90;65.90;;;;;;4954262;28;20062;-78
2023/05/01 01:07:14;;;;;;;7.00;5.28;;;14.90;65.90;;;;;;4944664;28;20031;-78
2023/05/01 01:09:52;;;;;;;;;;;14.90;66.00;;;;;;4935278;28;20039;-78
2023/05/01 01:12:27;;;;;;;7.93;3.80;;;14.90;65.90;;;;;;4944216;28;20317;-78
2023/05/01 01:15:19;;;;;;;8.75;4.05;;;14.80;65.70;;;;;;4950446;28;20046;-79
2023/05/01 01:18:20;;;;;;;11.15;4.93;;;14.80;65.80;;;;;;4932820;28;20027;-80
2023/05/01 01:21:14;;;;;;;8.00;4.28;;;14.80;65.80;;;;;;4927292;29;20073;-80
2023/05/01 01:23:40;;;;;;;9.73;4.43;;;14.80;65.80;;;;;;4959436;28;20035;-80
2023/05/01 01:26:11;;;;;;;11.13;4.20;;;14.80;65.80;;;;;;4934083;29;20031;-79
2023/05/01 01:28:52;;;;;;;10.07;4.40;;;14.80;65.90;;;;;;4939584;28;20117;-79
2023/05/01 01:31:32;;;;;;;6.15;4.03;;;14.80;66.00;;;;;;4944487;28;20145;-79
2023/05/01 01:34:35;;;;;;;10.30;4.50;;;14.80;66.00;;;;;;4951131;28;20118;-79
2023/05/01 01:37:14;;;;;;;9.45;4.00;;;14.80;66.10;;;;;;4943983;28;20370;-79
2023/05/01 01:39:46;;;;;;;13.57;5.13;;;14.70;65.80;;;;;;4944766;28;20050;-80
2023/05/01 01:42:19;;;;;;;10.70;4.70;;;14.70;65.90;;;;;;4927505;28;20043;-79
2023/05/01 01:44:55;;;;;;;12.45;4.07;;;14.70;65.90;;;;;;4930917;28;20089;-79
2023/05/01 01:47:30;;;;;;;7.97;3.90;;;14.70;65.90;;;;;;4946013;28;20165;-79
2023/05/01 01:50:00;;;;;;;8.25;4.70;;;14.70;66.00;;;;;;4937081;28;20093;-79
2023/05/01 01:52:28;;;;;;;8.27;3.78;;;14.70;65.90;;;;;;4945742;28;20035;-79
2023/05/01 01:55:04;;;;;;;7.97;4.07;;;14.70;66.00;;;;;;4946064;28;20039;-80
2023/05/01 01:57:31;;;;;;;7.28;3.65;;;14.70;66.50;;;;;;4948153;28;20035;-80
2023/05/01 01:59:57;;;;;;;7.32;4.28;;;14.70;66.00;;;;;;4949007;28;20039;-79
2023/05/01 02:02:26;;;;;;;8.23;4.53;;;14.70;66.00;;;;;;4948844;28;20129;-79
2023/05/01 02:04:55;;;;;;;7.88;3.70;;;14.70;66.00;;;;;;4929066;29;20077;-79
2023/05/01 02:07:22;;;;;;;5.93;4.18;;;14.70;66.00;;;;;;4947297;28;20475;-79
2023/05/01 02:09:52;;;;;;;9.52;5.15;;;14.70;66.10;;;;;;4946101;28;20495;-79
2023/05/01 02:12:18;;;;;;;8.80;4.03;;;14.70;66.10;;;;;;4946050;28;20379;-79
2023/05/01 02:14:46;;;;;;;7.35;4.32;;;14.70;66.10;;;;;;4943741;28;20479;-78
2023/05/01 02:17:15;;;;;;;8.30;4.75;;;14.60;66.00;;;;;;4946090;28;20360;-78
2023/05/01 02:19:42;;;;;;;5.13;3.33;;;14.70;66.20;;;;;;4946514;28;20279;-79
2023/05/01 02:22:10;;;;;;;7.68;4.00;;;14.60;66.00;;;;;;4947321;28;20487;-79
2023/05/01 02:24:38;;;;;;;5.75;3.47;;;14.60;66.10;;;;;;4947526;28;20098;-80
2023/05/01 02:27:15;;;;;;;10.43;3.97;;;14.60;66.20;;;;;;4947745;28;20046;-80
2023/05/01 02:29:41;;;;;;;9.48;3.97;;;14.60;66.20;;;;;;4942598;28;20083;-79
2023/05/01 02:32:07;;;;;;;8.10;3.63;;;14.60;66.70;;;;;;4947507;28;20035;-79
2023/05/01 02:34:34;;;;;;;6.90;3.50;;;14.60;66.20;;;;;;4950731;28;20257;-79
2023/05/01 02:37:01;;;;;;;6.47;3.72;;;14.60;66.30;;;;;;4931488;29;20032;-79
2023/05/01 02:39:28;;;;;;;11.40;4.68;;;14.50;66.10;;;;;;4946155;28;20098;-79
2023/05/01 02:41:57;;;;;;;6.75;3.97;;;14.60;66.30;;;;;;4941462;29;20286;-80
2023/05/01 02:44:25;;;;;;;10.68;3.35;;;14.60;66.30;;;;;;4946638;28;20046;-80
2023/05/01 02:46:52;;;;;;;6.35;3.22;;;14.50;66.20;;;;;;4944664;29;20077;-80
2023/05/01 02:49:20;;;;;;;10.32;4.10;;;14.50;66.20;;;;;;4945399;28;20032;-79
2023/05/01 02:51:47;;;;;;;6.85;3.83;;;14.50;66.20;;;;;;4947580;28;20039;-79
2023/05/01 02:54:14;;;;;;;10.10;4.43;;;14.50;66.30;;;;;;4946331;28;20057;-80
2023/05/01 02:56:41;;;;;;;7.55;4.78;;;14.50;66.30;;;;;;4946580;28;20105;-80
2023/05/01 02:59:07;;;;;;;6.63;3.95;;;14.50;66.30;;;;;;4944132;28;20032;-78
2023/05/01 03:01:33;;;;;;;7.80;3.95;;;14.50;66.30;;;;;;4947421;29;20600;-79
2023/05/01 03:03:59;;;;;;;8.20;3.70;;;14.50;66.30;;;;;;4949335;29;20565;-78
2023/05/01 03:06:27;;;;;;;7.88;3.75;;;14.50;66.30;;;;;;4952805;28;20110;-78
2023/05/01 03:08:55;;;;;;;7.03;4.22;;;14.50;66.30;;;;;;4949703;28;20342;-78
2023/05/01 03:11:20;;;;;;;6.47;3.47;;;14.50;66.30;;;;;;4950978;28;20130;-79
2023/05/01 03:13:47;;;;;;;6.90;3.33;;;14.50;66.40;;;;;;4947143;28;20035;-79
2023/05/01 03:16:13;;;;;;;11.10;4.28;;;14.50;66.40;;;;;;4948334;29;20605;-79
2023/05/01 03:18:39;;;;;;;6.28;3.72;;;14.50;66.40;;;;;;4950685;28;20113;-78
2023/05/01 03:21:05;;;;;;;6.78;3.55;;;14.50;66.40;;;;;;4948757;29;20028;-78
2023/05/01 03:23:31;;;;;;;10.60;4.85;;;14.40;66.30;;;;;;4948953;28;20031;-79
2023/05/01 03:25:58;;;;;;;6.70;3.47;;;14.40;66.30;;;;;;4948823;28;20040;-78
2023/05/01 03:28:24;;;;;;;6.72;3.80;;;14.40;66.90;;;;;;4949766;28;20043;-78
2023/05/01 03:30:52;;;;;;;7.47;3.35;;;14.40;66.40;;;;;;4943301;28;20134;-79
2023/05/01 03:33:18;;;;;;;7.78;3.50;;;14.40;66.40;;;;;;4952048;28;20053;-78
2023/05/01 03:35:44;;;;;;;6.57;3.80;;;14.40;66.40;;;;;;4931825;29;20038;-79
2023/05/01 03:38:10;;;;;;;11.60;4.88;;;14.40;66.40;;;;;;4956456;28;20479;-79
2023/05/01 03:40:55;;;;;;;6.47;3.25;;;14.40;66.50;;;;;;4950585;29;20352;-79
2023/05/01 03:43:43;;;;;;;8.57;4.03;;;14.40;66.50;;;;;;4946281;28;20043;-79
2023/05/01 03:46:35;;;;;;;7.70;3.13;;;14.40;66.50;;;;;;4950039;28;20047;-79
2023/05/01 03:49:02;;;;;;;10.48;4.43;;;14.40;66.50;;;;;;4945884;28;20055;-79
2023/05/01 03:51:32;;;;;;;9.50;3.65;;;14.40;66.60;;;;;;4934339;29;20039;-79
2023/05/01 03:53:58;;;;;;;7.13;4.35;;;14.40;66.60;;;;;;4948957;28;20046;-79
2023/05/01 03:56:27;;;;;;;6.95;3.25;;;14.40;66.60;;;;;;4947801;28;20043;-79
2023/05/01 03:58:53;;;;;;;10.23;5.20;;;14.40;66.60;;;;;;4935763;28;20031;-79
2023/05/01 04:01:19;;;;;;;5.85;2.95;;;14.30;67.00;;;;;;4948601;29;20039;-78
2023/05/01 04:03:47;;;;;;;7.45;3.90;;;14.40;66.70;;;;;;4948627;28;20043;-78
2023/05/01 04:06:13;;;;;;;8.52;3.60;;;14.30;66.50;;;;;;4948382;29;20069;-79
2023/05/01 04:08:39;;;;;;;6.10;2.85;;;14.40;66.70;;;;;;4947205;28;20415;-79
2023/05/01 04:11:05;;;;;;;8.60;3.60;;;14.30;66.60;;;;;;4948365;28;20478;-79
2023/05/01 04:13:31;;;;;;;7.75;3.30;;;14.40;66.70;;;;;;4946965;29;20035;-79
2023/05/01 04:15:58;;;;;;;10.23;4.32;;;14.40;66.70;;;;;;4946156;29;20384;-78
2023/05/01 04:18:26;;;;;;;9.07;3.90;;;14.40;66.80;;;;;;4948103;28;20054;-78
2023/05/01 04:20:57;;;;;;;7.93;4.07;;;14.40;66.80;;;;;;4948459;28;20039;-78
2023/05/01 04:23:23;;;;;;;6.55;3.40;;;14.30;66.60;;;;;;4943903;28;20031;-78
2023/05/01 04:25:50;;;;;;;8.57;3.75;;;14.30;66.70;;;;;;4946572;28;20506;-77
2023/05/01 04:28:17;;;;;;;7.50;3.45;;;14.30;66.70;;;;;;4959527;28;20183;-78
2023/05/01 04:30:43;;;;;;;5.97;3.65;;;14.30;66.80;;;;;;4945377;28;20571;-78
2023/05/01 04:33:10;;;;;;;8.35;3.45;;;14.30;66.80;;;;;;4954008;28;20062;-79
2023/05/01 04:35:40;;;;;;;5.10;2.83;;;14.30;66.80;;;;;;4946821;28;20098;-78
2023/05/01 04:38:09;;;;;;;6.07;3.38;;;14.30;66.90;;;;;;4943544;28;20625;-77
2023/05/01 04:40:35;;;;;;;9.45;3.35;;;14.30;66.90;;;;;;4945097;28;20085;-78
2023/05/01 04:43:01;;;;;;;5.97;2.85;;;14.30;66.90;;;;;;4942655;28;20501;-77
2023/05/01 04:45:27;;;;;;;6.40;2.80;;;14.20;66.80;;;;;;4944762;28;20508;-77
2023/05/01 04:47:54;;;;;;;7.63;4.05;;;14.20;66.80;;;;;;4941531;28;20133;-77
2023/05/01 04:50:20;;;;;;;6.13;3.03;;;14.20;66.90;;;;;;4943138;28;20118;-80
2023/05/01 04:52:47;;;;;;;8.00;3.60;;;14.20;66.90;;;;;;4941412;28;20043;-79
2023/05/01 04:55:13;;;;;;;6.05;3.25;;;14.20;66.90;;;;;;4942579;28;20530;-79
2023/05/01 04:57:56;;;;;;;4.10;2.65;;;14.20;66.90;;;;;;4941971;28;20039;-79
2023/05/01 05:00:22;;;;;;;6.88;3.75;;;14.20;66.90;;;;;;4943689;28;20143;-80
2023/05/01 05:02:53;;;;;;;6.03;3.28;;;14.30;67.10;;;;;;4940827;28;20122;-80
2023/05/01 05:05:19;;;;;;;7.30;3.33;;;14.20;66.90;;;;;;4943570;28;20122;-81
2023/05/01 05:07:46;;;;;;;11.77;3.95;;;14.30;67.10;;;;;;4941469;28;20041;-81
2023/05/01 05:10:31;;;;;;;7.40;3.80;;;14.30;67.10;;;;;;4943582;28;20144;-80
2023/05/01 05:13:19;;;;;;;6.85;4.63;;;14.30;67.10;;;;;;4940707;28;20058;-79
2023/05/01 05:15:49;;;;;;;7.40;3.10;;;14.30;67.10;;;;;;4939525;28;20452;-79
2023/05/01 05:18:18;;;;;;;9.63;4.38;;;14.30;67.10;;;;;;4937173;28;20178;-78
2023/05/01 05:20:44;;;;;;;7.65;3.28;;;14.30;67.10;;;;;;4939922;29;20174;-78
2023/05/01 05:23:10;;;;;;;9.18;3.75;;;14.30;67.10;;;;;;4942268;28;20476;-77
2023/05/01 05:25:36;;;;;;;12.10;3.47;;;14.30;67.10;;;;;;4942511;28;20031;-79
2023/05/01 05:28:03;;;;;;;7.20;3.30;;;14.30;67.10;;;;;;4941646;28;20039;-79
2023/05/01 05:30:29;;;;;;;7.05;3.60;;;14.30;67.10;;;;;;4941218;28;20043;-78
2023/05/01 05:32:56;;;;;;;5.20;3.15;;;14.40;67.30;;;;;;4941310;28;20571;-77
2023/05/01 05:35:22;;;;;;;8.90;3.38;;;14.40;67.30;;;;;;4939304;28;20539;-77
2023/05/01 05:37:48;;;;;;;6.47;4.00;;;14.40;67.30;;;;;;4939629;28;20034;-77
2023/05/01 05:40:14;;;;;;;8.38;3.70;;;14.40;67.30;;;;;;4965028;28;20229;-81
2023/05/01 05:42:56;;;;;;;11.95;4.72;;;14.40;67.30;;;;;;4967191;28;20030;-81
2023/05/01 05:45:24;;;;;;;6.22;3.60;;;14.40;67.20;;;;;;4966230;28;20031;-79
2023/05/01 05:47:50;;;;;;;10.50;5.65;;;14.50;67.40;;;;;;4955964;28;20107;-81
2023/05/01 05:50:17;;;;;;;8.30;3.88;;;14.50;67.40;;;;;;4954352;28;20043;-80
2023/05/01 05:52:44;;;;;;;9.20;4.22;;;14.50;67.30;;;;;;4946537;28;20130;-80
2023/05/01 05:55:10;;;;;;;7.82;3.95;;;14.50;67.20;;;;;;4939650;28;20439;-79
2023/05/01 05:57:37;;;;;;;7.70;3.40;;;14.60;67.40;;;;;;4936568;28;20053;-81
2023/05/01 06:00:09;;;;;;;9.00;4.15;;;14.60;67.30;;;;;;4923218;29;20061;-78
2023/05/01 06:02:47;;;;;;;10.25;4.25;;;14.70;67.50;;;;;;4950432;28;20044;-80
2023/05/01 06:05:14;;;;;;;10.80;4.22;;;14.70;67.30;;;;;;4934868;28;20028;-82
2023/05/01 06:07:40;;;;;;;10.48;3.67;;;14.70;67.30;;;;;;4935038;28;20130;-80
2023/05/01 06:10:07;;;;;;;13.23;4.70;;;14.80;67.40;;;;;;4963983;28;20120;-80
2023/05/01 06:12:33;;;;;;;8.77;4.00;;;14.80;67.40;;;;;;4937287;28;20279;-79
2023/05/01 06:15:00;;;;;;;11.07;4.53;;;14.80;67.40;;;;;;4934351;28;20359;-79
2023/05/01 06:17:26;;;;;;;8.93;4.70;;;14.80;67.30;;;;;;4938709;28;20068;-78
2023/05/01 06:19:52;;;;;;;8.10;4.65;;;14.80;67.30;;;;;;4935405;28;20499;-80
2023/05/01 06:22:19;;;;;;;8.38;4.88;;;14.90;67.70;;;;;;4934098;28;20505;-78
2023/05/01 06:24:58;;;;;;;10.32;5.05;;;14.90;68.20;;;;;;4934457;28;20404;-79
2023/05/01 06:27:26;;;;;;;7.43;4.70;;;15.00;68.70;;;;;;4934676;28;20047;-78
2023/05/01 06:29:53;;;;;;;25.77;6.72;;;15.10;69.10;;;;;;4932803;28;20136;-78
2023/05/01 06:32:19;;;;;;;7.95;4.20;;;15.20;69.50;;;;;;4926874;29;20257;-78
2023/05/01 06:34:45;;;;;;;12.57;4.78;;;15.30;69.80;;;;;;4933448;28;20326;-78
2023/05/01 06:37:11;;;;;;;7.63;4.45;;;15.30;70.00;;;;;;4934676;28;20047;-79
2023/05/01 06:39:37;;;;;;;15.13;5.20;;;15.40;70.40;;;;;;4936561;28;20542;-78
2023/05/01 06:42:03;;;;;;;8.43;4.68;;;15.50;70.70;;;;;;4937285;28;20503;-78
2023/05/01 06:44:32;;;;;;;6.65;4.47;;;15.50;70.90;;;;;;4937585;28;20036;-77
2023/05/01 06:47:00;;;;;;;9.25;4.55;;;15.60;71.10;;;;;;4936918;28;20546;-78
2023/05/01 06:49:26;;;;;;;10.50;4.90;;;15.70;71.30;;;;;;4921129;28;20020;-77
2023/05/01 06:51:52;;;;;;;9.50;5.15;;;15.80;71.60;;;;;;4937237;28;20456;-78
2023/05/01 06:54:18;;;;;;;9.00;4.63;;;15.80;71.70;;;;;;4934545;28;20039;-79
2023/05/01 06:56:44;;;;;;;11.43;3.95;;;15.90;71.90;;;;;;4935955;28;20392;-77
2023/05/01 06:59:10;;;;;;;8.90;4.22;;;16.00;72.10;;;;;;4930876;28;20042;-78
2023/05/01 07:01:36;;;;;;;10.77;4.53;;;16.00;72.10;;;;;;4934671;28;20601;-78
2023/05/01 07:04:02;;;;;;;11.05;4.63;;;16.10;72.20;;;;;;4939192;28;20048;-77
2023/05/01 07:06:28;;;;;;;8.40;4.38;;;16.20;72.40;;;;;;4938073;28;20398;-78
2023/05/01 07:08:54;;;;;;;7.75;4.13;;;16.30;72.50;;;;;;4936592;28;20042;-77
2023/05/01 07:11:20;;;;;;;12.45;5.30;;;16.40;72.60;;;;;;4936955;28;20063;-77
2023/05/01 07:13:46;;;;;;;4.70;4.10;;;16.50;72.70;;;;;;4938553;28;20041;-77
2023/05/01 07:16:12;;;;;;;11.20;5.13;;;16.60;72.60;;;;;;4934185;28;20454;-77
2023/05/01 07:18:38;;;;;;;11.93;5.32;;;16.60;72.50;;;;;;4933347;28;20576;-78
2023/05/01 07:21:04;;;;;;;10.40;5.25;;;16.70;72.50;;;;;;4933295;28;20436;-78
2023/05/01 07:23:30;;;;;;;7.45;4.53;;;16.80;72.60;;;;;;4934418;28;20126;-78
2023/05/01 07:25:56;;;;;;;9.52;3.67;;;16.90;72.70;;;;;;4937672;28;20548;-77
2023/05/01 07:28:22;;;;;;;10.98;3.95;;;16.90;72.70;;;;;;4934177;28;20043;-77
2023/05/01 07:30:48;;;;;;;5.15;3.05;;;17.00;73.10;;;;;;4932802;28;20035;-77
2023/05/01 07:33:15;;;;;;;6.40;3.30;;;17.10;73.30;;;;;;4934928;28;20031;-79
2023/05/01 07:35:41;;;;;;;5.90;3.35;;;17.30;73.50;;;;;;4937235;28;20461;-77
2023/05/01 07:38:08;;;;;;;6.43;2.60;;;17.40;73.40;;;;;;4935931;28;20032;-79
2023/05/01 07:40:34;;;;;;;5.63;2.60;;;17.60;73.40;;;;;;4937101;28;20109;-77
2023/05/01 07:43:00;;;;;;;6.35;3.35;;;17.80;73.40;;;;;;4933916;28;20426;-80
2023/05/01 07:45:26;;;;;;;5.38;3.47;;;18.10;73.40;;;;;;4915938;29;20035;-81
2023/05/01 07:47:52;;;;;;;7.25;3.65;;;18.30;73.20;;;;;;4936921;28;20089;-80
2023/05/01 07:50:18;;;;;;;5.80;2.90;;;18.50;72.80;;;;;;4935364;28;20027;-81
2023/05/01 07:52:45;;;;;;;9.70;4.22;;;18.70;72.50;;;;;;4932077;28;20536;-81
2023/05/01 07:55:11;;;;;;;8.82;4.45;;;18.90;72.20;;;;;;4938201;28;20037;-80
2023/05/01 07:57:38;;;;;;;7.90;4.03;;;19.00;71.80;;;;;;4936468;28;20039;-81
2023/05/01 08:00:04;;;;;;;6.47;3.95;;;19.10;71.30;;;;;;4933953;28;20039;-80
2023/05/01 08:02:39;;;;;;;7.25;4.68;;;19.20;71.50;;;;;;4933099;28;20047;-79
2023/05/01 08:05:06;;;;;;;8.38;3.95;;;19.40;70.70;;;;;;4935282;28;20045;-77
2023/05/01 08:07:32;;;;;;;8.40;4.35;;;19.60;70.50;;;;;;4936947;28;20142;-79
2023/05/01 08:09:59;;;;;;;10.43;5.28;;;19.70;70.10;;;;;;4936150;28;20031;-80
2023/05/01 08:12:25;;;;;;;8.20;4.45;;;19.70;69.60;;;;;;4933006;28;20040;-79
2023/05/01 08:14:52;;;;;;;7.55;4.90;;;19.90;69.40;;;;;;4928621;28;20052;-80
2023/05/01 08:17:17;;;;;;;7.25;4.47;;;19.90;69.00;;;;;;4937067;28;20503;-80
2023/05/01 08:19:46;;;;;;;7.82;4.72;;;20.00;68.80;;;;;;4933415;28;20047;-80
2023/05/01 08:22:13;;;;;;;5.18;4.28;;;20.00;68.40;;;;;;4935083;28;20038;-79
2023/05/01 08:24:40;;;;;;;8.80;4.75;;;20.10;68.10;;;;;;4936461;28;20627;-79
2023/05/01 08:27:07;;;;;;;7.95;5.38;;;20.20;68.00;;;;;;4941053;28;20039;-78
2023/05/01 08:29:33;;;;;;;6.65;4.60;;;20.20;67.70;;;;;;4935318;28;20115;-78
2023/05/01 08:31:59;;;;;;;5.72;4.57;;;20.20;67.50;;;;;;4950831;28;20042;-79
2023/05/01 08:34:25;;;;;;;9.98;5.35;;;20.10;67.10;;;;;;4935529;28;20562;-77
2023/05/01 08:36:51;;;;;;;9.10;5.88;;;20.10;67.00;;;;;;4938205;28;20126;-78
2023/05/01 08:39:17;;;;;;;6.97;4.55;;;20.00;66.70;;;;;;4939635;28;20046;-80
2023/05/01 08:41:46;;;;;;;7.75;4.93;;;20.00;66.70;;;;;;4934937;28;20774;-77
2023/05/01 08:44:15;;;;;;;7.07;4.47;;;20.10;66.70;;;;;;4937350;28;20057;-78
2023/05/01 08:46:56;;;;;;;6.60;5.07;;;20.20;66.50;;;;;;4939111;28;20055;-78
2023/05/01 08:49:24;;;;;;;6.18;4.00;;;20.40;66.30;;;;;;4933955;28;20204;-78
2023/05/01 08:51:51;;;;;;;6.05;3.95;;;20.70;66.30;;;;;;4939612;28;20027;-78
2023/05/01 08:54:19;;;;;;;6.55;4.15;;;20.90;65.80;;;;;;4935732;28;20301;-78
2023/05/01 08:56:46;;;;;;;5.30;4.00;;;21.00;65.50;;;;;;4938806;28;20032;-78
2023/05/01 08:59:13;;;;;;;4.70;4.15;;;21.20;65.40;;;;;;4937015;28;20038;-77
2023/05/01 09:01:42;;;;;;;4.65;3.70;;;21.30;65.20;;;;;;4937751;28;20521;-76
2023/05/01 09:04:09;;;;;;;6.20;3.60;;;21.40;64.90;;;;;;4936813;28;20031;-76
2023/05/01 09:06:35;;;;;;;6.22;3.70;;;21.50;64.70;;;;;;4935814;28;20122;-78
2023/05/01 09:09:02;;;;;;;6.85;4.22;;;21.60;64.50;;;;;;4939401;28;20329;-79
2023/05/01 09:11:29;;;;;;;5.57;3.72;;;21.60;64.30;;;;;;4935468;28;20142;-80
2023/05/01 09:13:55;;;;;;;3.70;3.22;;;21.60;64.20;;;;;;4937360;28;20064;-79
2023/05/01 09:16:22;;;;;;;6.47;3.40;;;21.70;64.10;;;;;;4939050;28;20050;-80
2023/05/01 09:18:48;;;;;;;6.05;3.15;;;21.80;63.90;;;;;;4938238;28;20507;-81
2023/05/01 09:21:14;;;;;;;7.57;4.20;;;21.90;63.80;;;;;;4940749;28;20035;-80
2023/05/01 09:23:40;;;;;;;4.35;2.63;;;22.00;63.60;;;;;;4938998;28;20458;-80
2023/05/01 09:26:07;;;;;;;5.88;3.25;;;22.10;63.50;;;;;;4934005;28;20050;-81
2023/05/01 09:28:47;;;;;;;5.90;3.33;;;22.20;63.40;;;;;;4935876;28;20051;-81
2023/05/01 09:31:27;;;;;;;6.22;3.58;;;22.30;63.20;;;;;;4917126;28;20121;-79
2023/05/01 09:33:53;;;;;;;3.58;3.08;;;22.50;63.60;;;;;;4932879;28;20039;-79
2023/05/01 09:36:19;;;;;;;6.15;3.03;;;22.70;63.00;;;;;;4934290;28;20318;-79
2023/05/01 09:38:45;;;;;;;4.63;2.55;;;22.90;63.00;;;;;;4936241;28;20031;-79
2023/05/01 09:41:11;;;;;;;4.78;3.20;;;23.20;62.90;;;;;;4934727;28;20483;-82
2023/05/01 09:43:37;;;;;;;4.82;3.45;;;23.50;62.60;;;;;;4933397;28;20036;-81
2023/05/01 09:46:09;;;;;;;6.18;2.85;;;23.80;62.50;;;;;;4931324;28;20114;-80
2023/05/01 09:48:36;;;;;;;3.60;2.75;;;24.00;62.20;;;;;;4937227;28;20387;-78
2023/05/01 09:51:28;;;;;;;6.03;3.03;;;24.20;62.30;;;;;;4922446;28;20039;-79
2023/05/01 09:53:59;;;;;;;3.10;2.20;;;24.30;61.70;;;;;;4934937;28;20542;-80
2023/05/01 09:56:26;;;;;;;6.22;2.80;;;24.30;61.70;;;;;;4947602;28;20394;-80
2023/05/01 09:58:53;;;;;;;2.95;2.22;;;24.30;61.70;;;;;;4930382;28;20207;-81
2023/05/01 10:01:41;;;;;;;4.18;2.70;;;24.20;61.40;;;;;;4936497;28;20765;-79
2023/05/01 10:04:08;;;;;;;6.03;2.55;;;24.10;60.90;;;;;;4938212;28;20750;-79
2023/05/01 10:06:35;;;;;;;3.40;2.28;;;24.10;61.20;;;;;;4934609;28;20388;-79
2023/05/01 10:09:02;;;;;;;3.60;2.53;;;24.10;60.90;;;;;;4932917;28;20500;-80
2023/05/01 10:11:29;;;;;;;3.75;2.55;;;24.20;60.80;;;;;;4931350;28;20121;-79
2023/05/01 10:14:09;;;;;;;3.40;2.38;;;24.20;60.60;;;;;;4929492;28;20121;-80
2023/05/01 10:16:37;;;;;;;4.20;2.63;;;24.30;60.40;;;;;;4932364;28;20513;-80
2023/05/01 10:19:03;;;;;;;4.88;2.90;;;24.40;60.60;;;;;;4930260;28;20499;-80
2023/05/01 10:21:32;;;;;;;7.28;2.65;;;24.50;60.50;;;;;;4938905;28;20093;-80
2023/05/01 10:24:00;;;;;;;4.45;2.20;;;24.70;60.50;;;;;;4935565;28;20039;-81
2023/05/01 10:26:26;;;;;;;5.22;2.85;;;24.70;60.30;;;;;;4938749;28;20314;-80
2023/05/01 10:28:57;;;;;;;3.50;2.60;;;24.70;60.10;;;;;;4922438;29;20083;-80
2023/05/01 10:31:24;;;;;;;4.88;2.97;;;24.60;59.80;;;;;;4935465;28;20070;-80
2023/05/01 10:33:51;;;;;;;3.17;2.13;;;24.60;60.00;;;;;;4935620;28;20086;-80
2023/05/01 10:36:43;;;;;;;3.60;2.40;;;24.60;59.90;;;;;;4937036;28;20033;-79
2023/05/01 10:39:34;;;;;;;3.08;2.15;;;24.80;59.70;;;;;;4954783;28;20047;-80
2023/05/01 10:42:13;;;;;;;3.88;2.33;;;24.90;59.50;;;;;;4970104;28;20116;-80
2023/05/01 10:44:40;;;;;;;3.35;2.00;;;25.10;59.40;;;;;;4960014;28;20102;-81
2023/05/01 10:47:26;;;;;;;3.55;1.60;;;25.20;59.30;;;;;;4960782;28;20333;-81
2023/05/01 10:50:03;;;;;;;1.92;1.48;;;25.30;58.60;;;;;;4977497;28;20036;-81
2023/05/01 10:52:30;;;;;;;2.95;1.45;;;25.50;58.50;;;;;;4956566;28;20052;-81
2023/05/01 10:55:35;;;;;;;3.17;1.13;;;25.70;58.40;;;;;;4953751;28;20498;-81
2023/05/01 10:58:01;;;;;;;2.70;1.92;;;26.00;58.00;;;;;;4954013;28;20058;-78
2023/05/01 11:00:26;;;;;;;4.38;2.85;;;26.30;57.90;;;;;;4948321;28;20233;-77
2023/05/01 11:03:20;;;;;;;7.85;3.75;;;26.40;57.50;;;;;;4934785;28;20083;-76
2023/05/01 11:05:59;;;;;;;4.32;3.35;;;26.60;57.10;;;;;;4935046;28;20046;-78
2023/05/01 11:08:36;;;;;;;5.22;3.13;;;26.70;56.90;;;;;;4932881;28;20468;-77
2023/05/01 11:11:21;;;;;;;3.78;2.30;;;26.80;56.50;;;;;;4925851;28;20044;-86
2023/05/01 11:14:09;;;;;;;5.90;3.15;;;26.90;55.90;;;;;;4949754;28;20490;-78
2023/05/01 11:16:40;;;;;;;4.05;2.58;;;27.00;55.60;;;;;;4936236;28;20047;-77
2023/05/01 11:19:19;;;;;;;3.13;2.60;;;27.00;55.80;;;;;;4931912;28;20110;-77
2023/05/01 11:21:46;;;;;;;4.45;2.88;;;27.00;55.70;;;;;;4936062;28;20047;-77
2023/05/01 11:24:12;;;;;;;5.30;2.65;;;27.10;55.60;;;;;;4935726;28;20363;-77
2023/05/01 11:26:39;;;;;;;3.58;1.83;;;27.20;55.20;;;;;;4957374;28;20474;-77
2023/05/01 11:29:06;;;;;;;13.82;10.10;;;27.10;54.80;;;;;;4934349;28;20039;-76
2023/05/01 11:31:32;;;;;;;12.88;7.35;;;27.00;54.70;;;;;;4934847;28;20416;-77
2023/05/01 11:33:59;;;;;;;6.35;4.18;;;26.80;54.80;;;;;;4933577;28;20046;-76
2023/05/01 11:36:27;;;;;;;7.40;3.97;;;26.60;54.90;;;;;;4937859;28;20466;-78
2023/05/01 11:38:57;;;;;;;2.15;1.77;;;26.30;55.10;;;;;;4932181;28;20121;-78
2023/05/01 11:41:25;;;;;;;7.88;4.13;;;26.10;55.30;;;;;;4937506;28;20043;-78
2023/05/01 11:43:57;;;;;;;6.50;3.42;;;25.80;55.40;;;;;;4942494;28;20357;-79
2023/05/01 11:46:31;;;;;;;9.90;5.10;;;25.60;55.50;;;;;;4937244;28;20122;-78
2023/05/01 11:48:59;;;;;;;5.53;3.05;;;25.50;55.70;;;;;;4934116;28;20471;-78
2023/05/01 11:51:27;;;;;;;8.52;3.10;;;25.40;55.90;;;;;;4940989;28;20109;-78
2023/05/01 11:54:03;;;;;;;9.73;4.63;;;25.30;55.90;;;;;;4951290;28;20039;-78
2023/05/01 11:56:29;;;;;;;9.05;5.07;;;25.30;55.80;;;;;;4941667;28;20038;-79
2023/05/01 11:58:57;;;;;;;10.07;4.10;;;25.40;56.00;;;;;;4935964;28;20402;-78
2023/05/01 12:01:38;;;;;;;9.82;4.07;;;25.40;55.80;;;;;;4941573;28;20035;-78
2023/05/01 12:04:06;;;;;;;7.53;4.28;;;25.50;55.40;;;;;;4938385;28;20634;-78
2023/05/01 12:06:42;;;;;;;11.07;4.72;;;25.60;55.50;;;;;;4939920;28;20411;-78
2023/05/01 12:09:15;;;;;;;7.07;3.38;;;25.60;55.40;;;;;;4938094;28;20435;-77
2023/05/01 12:11:42;;;;;;;7.22;3.42;;;25.60;55.40;;;;;;4939645;28;20078;-78
2023/05/01 12:14:09;;;;;;;9.38;3.65;;;25.70;55.30;;;;;;4941974;28;20027;-78
2023/05/01 12:16:36;;;;;;;5.28;2.60;;;25.90;55.20;;;;;;4939749;28;20299;-77
2023/05/01 12:19:03;;;;;;;6.30;2.78;;;26.20;55.60;;;;;;4936074;28;20289;-79
2023/05/01 12:21:30;;;;;;;4.22;2.00;;;26.40;54.50;;;;;;4934705;28;20043;-78
2023/05/01 12:24:06;;;;;;;6.72;2.85;;;26.50;54.10;;;;;;4941120;28;20043;-78
2023/05/01 12:26:32;;;;;;;8.52;2.90;;;26.50;53.80;;;;;;4921132;28;20090;-79
2023/05/01 12:29:00;;;;;;;4.82;2.25;;;26.60;53.80;;;;;;4938777;28;20043;-79
2023/05/01 12:31:26;;;;;;;6.82;2.08;;;26.70;53.70;;;;;;4936638;28;20422;-79
2023/05/01 12:34:11;;;;;;;7.15;2.78;;;27.00;53.50;;;;;;4935809;28;20042;-78
2023/05/01 12:36:38;;;;;;;3.75;1.95;;;27.20;53.00;;;;;;4951414;28;20513;-79
2023/05/01 12:39:10;;;;;;;3.80;2.05;;;27.50;53.00;;;;;;4940288;28;20487;-79
2023/05/01 12:41:39;;;;;;;;;;;27.70;52.60;;;;;;4934711;28;20043;-78
2023/05/01 12:44:22;;;;;;;5.88;2.30;;;27.80;52.80;;;;;;4935606;28;19914;-79
2023/05/01 12:47:03;;;;;;;5.75;2.35;;;27.80;52.40;;;;;;4934604;28;20051;-80
2023/05/01 12:49:31;;;;;;;4.80;1.92;;;27.80;53.00;;;;;;4936924;28;20040;-80
2023/05/01 12:51:59;;;;;;;3.15;1.75;;;27.70;52.40;;;;;;4936623;28;20525;-79
2023/05/01 12:54:29;;;;;;;3.22;1.65;;;27.50;52.40;;;;;;4935180;28;20043;-78
2023/05/01 12:57:08;;;;;;;4.28;2.13;;;27.40;52.50;;;;;;4938546;28;20039;-78